Hengoed, United Kingdom
Current Conditions -  °F | °C
As of 11:50 AM on Sunday 21 Dec 2014 (Local Time) from EGFF Reporting Station
Overcast Overcast  
Wind Chill: 42°   Ceiling: 500
Heat Index: 48°   Visibility: 6mi
Dew Point: 48°   Wind: 16mph
Humidity: 100%   Direction: 260°W
Pressure: 30.33"   Gusts: NA
Location:  51.64°N, 3.24°W
Report Text: EGFF 211150Z AUTO 26014KT 9999 BKN005 OVC036 09/09 Q1027
Loading
Personal Weather Stations






























Interactive Weather Map New forecast layout! Learn more

10-Day Weather Forecast

Advertisements
Track Severe Weather on mobile